Time;durP1;ratioP1;P1;durP2;ratioP2;P2;SDS_P1;SDS_P2;PMS_P1;PMS_P2;Temp;Humidity;BMP_temperature;BMP_pressure;BME280_temperature;BME280_humidity;BME280_pressure;Samples;Min_cycle;Max_cycle;Signal;HPM_P1;HPM_P2
2021/03/23 00:01:16;;;;;;;5.25;3.25;;;8.30;99.90;;;;;;5080643;28;20185;-82
2021/03/23 00:03:46;;;;;;;5.32;3.45;;;8.20;99.90;;;;;;5079669;28;20186;-81
2021/03/23 00:06:14;;;;;;;8.82;3.10;;;8.10;99.90;;;;;;5078368;28;20189;-81
2021/03/23 00:08:44;;;;;;;9.93;4.78;;;8.00;99.90;;;;;;5079127;28;20191;-81
2021/03/23 00:11:14;;;;;;;5.43;3.17;;;8.10;99.90;;;;;;5077395;28;20508;-81
2021/03/23 00:13:41;;;;;;;5.55;3.25;;;8.10;99.90;;;;;;5076461;28;20180;-81
2021/03/23 00:16:08;;;;;;;6.35;3.40;;;8.20;99.90;;;;;;5076210;28;20267;-81
2021/03/23 00:18:34;;;;;;;3.92;3.00;;;8.20;99.90;;;;;;5059533;28;20192;-83
2021/03/23 00:21:00;;;;;;;3.60;2.93;;;8.20;99.90;;;;;;5075663;28;20542;-83
2021/03/23 00:23:26;;;;;;;5.07;2.90;;;8.20;99.90;;;;;;5080406;28;20187;-81
2021/03/23 00:25:52;;;;;;;3.33;2.13;;;8.00;99.90;;;;;;5085655;28;20184;-80
2021/03/23 00:28:19;;;;;;;5.10;3.10;;;8.10;99.90;;;;;;5084686;28;20195;-80
2021/03/23 00:30:44;;;;;;;4.38;2.90;;;7.90;99.90;;;;;;5067226;28;20237;-81
2021/03/23 00:33:10;;;;;;;6.67;3.10;;;7.90;99.90;;;;;;5083891;28;20209;-81
2021/03/23 00:35:35;;;;;;;4.33;2.60;;;7.80;99.90;;;;;;5084898;28;20168;-80
2021/03/23 00:38:04;;;;;;;5.53;3.10;;;7.60;99.90;;;;;;5086476;28;20196;-81
2021/03/23 00:40:32;;;;;;;4.30;3.05;;;7.70;99.90;;;;;;5080725;28;20263;-83
2021/03/23 00:43:04;;;;;;;6.30;3.15;;;7.80;99.90;;;;;;5078357;28;20643;-81
2021/03/23 00:45:31;;;;;;;4.82;2.72;;;7.70;99.90;;;;;;5062483;28;20176;-82
2021/03/23 00:47:57;;;;;;;4.95;3.15;;;7.80;99.90;;;;;;5077493;28;20180;-82
2021/03/23 00:50:23;;;;;;;5.40;3.13;;;7.80;99.90;;;;;;5077857;28;20300;-82
2021/03/23 00:52:48;;;;;;;6.10;3.13;;;7.90;99.90;;;;;;5060741;28;20211;-81
2021/03/23 00:55:14;;;;;;;5.77;2.97;;;8.00;99.90;;;;;;5076759;28;20418;-81
2021/03/23 00:57:40;;;;;;;3.88;2.40;;;8.00;99.90;;;;;;5078511;28;20202;-81
2021/03/23 01:00:08;;;;;;;4.30;2.60;;;8.00;99.90;;;;;;5077737;28;20183;-82
2021/03/23 01:02:34;;;;;;;7.47;3.55;;;8.10;99.90;;;;;;5078205;28;20168;-81
2021/03/23 01:05:00;;;;;;;5.83;4.00;;;8.20;99.90;;;;;;5076816;28;20689;-82
2021/03/23 01:07:25;;;;;;;8.33;2.70;;;8.10;99.90;;;;;;5077605;28;20206;-81
2021/03/23 01:09:51;;;;;;;6.27;3.67;;;8.10;99.90;;;;;;5077273;28;20206;-81
2021/03/23 01:12:17;;;;;;;5.23;2.80;;;8.10;99.90;;;;;;5076246;28;20655;-81
2021/03/23 01:14:43;;;;;;;8.20;3.23;;;8.20;99.90;;;;;;5076587;28;20172;-80
2021/03/23 01:17:08;;;;;;;7.60;2.80;;;8.20;99.90;;;;;;5079321;28;20172;-81
2021/03/23 01:19:34;;;;;;;6.60;3.03;;;8.10;99.90;;;;;;5062104;28;20442;-82
2021/03/23 01:22:00;;;;;;;4.57;2.83;;;8.10;99.90;;;;;;5080053;28;20434;-82
2021/03/23 01:24:26;;;;;;;9.90;3.47;;;8.10;99.90;;;;;;5078547;28;20422;-81
2021/03/23 01:26:52;;;;;;;4.93;3.67;;;8.10;99.90;;;;;;5077927;28;20422;-82
2021/03/23 01:29:17;;;;;;;5.10;2.80;;;8.10;99.90;;;;;;5078777;28;20200;-82
2021/03/23 01:31:43;;;;;;;4.40;3.27;;;8.10;99.90;;;;;;5075929;28;20434;-81
2021/03/23 01:34:09;;;;;;;8.50;3.70;;;8.10;99.90;;;;;;5077470;28;20176;-82
2021/03/23 01:36:35;;;;;;;3.95;3.10;;;8.10;99.90;;;;;;5077395;28;20179;-82
2021/03/23 01:39:01;;;;;;;4.80;3.05;;;8.00;99.90;;;;;;5077681;28;20242;-81
2021/03/23 01:41:26;;;;;;;4.03;2.80;;;7.90;99.90;;;;;;5059794;28;20176;-82
2021/03/23 01:43:52;;;;;;;5.03;3.30;;;8.00;99.90;;;;;;5076517;28;20175;-83
2021/03/23 01:46:39;;;;;;;2.90;2.33;;;8.10;99.90;;;;;;5076727;28;20172;-79
2021/03/23 01:49:08;;;;;;;5.85;2.97;;;8.10;99.90;;;;;;5076726;28;20562;-80
2021/03/23 01:51:34;;;;;;;5.07;2.75;;;8.10;99.90;;;;;;5074719;28;20266;-80
2021/03/23 01:54:08;;;;;;;5.10;3.23;;;7.70;99.90;;;;;;5078501;28;20211;-80
2021/03/23 01:56:34;;;;;;;2.90;2.30;;;7.70;99.90;;;;;;5079573;28;20177;-79
2021/03/23 01:59:01;;;;;;;5.30;2.60;;;7.80;99.90;;;;;;5080980;28;20195;-81
2021/03/23 02:01:28;;;;;;;3.28;2.40;;;7.70;99.90;;;;;;5079416;28;20203;-79
2021/03/23 02:03:54;;;;;;;6.35;3.50;;;7.70;99.90;;;;;;5080075;28;20257;-81
2021/03/23 02:06:41;;;;;;;4.93;2.80;;;7.70;99.90;;;;;;5078928;28;20172;-81
2021/03/23 02:09:15;;;;;;;2.72;2.15;;;7.60;99.90;;;;;;5078782;28;20267;-80
2021/03/23 02:11:49;;;;;;;4.60;2.80;;;7.50;99.90;;;;;;5078586;28;20175;-80
2021/03/23 02:14:16;;;;;;;6.32;2.97;;;7.50;99.90;;;;;;5079380;28;20646;-80
2021/03/23 02:16:42;;;;;;;5.00;2.58;;;7.50;99.90;;;;;;5078938;28;20202;-83
2021/03/23 02:19:09;;;;;;;8.90;2.90;;;7.50;99.90;;;;;;5077888;28;20219;-80
2021/03/23 02:21:35;;;;;;;4.03;2.70;;;7.60;99.90;;;;;;5076546;28;20175;-79
2021/03/23 02:24:02;;;;;;;5.60;2.80;;;7.60;99.90;;;;;;5078556;28;20535;-80
2021/03/23 02:26:32;;;;;;;6.15;2.22;;;7.60;99.90;;;;;;5077019;28;20169;-80
2021/03/23 02:29:18;;;;;;;7.32;3.50;;;7.60;99.90;;;;;;5078958;28;20224;-80
2021/03/23 02:31:53;;;;;;;6.45;3.00;;;7.50;99.90;;;;;;5078345;28;20188;-80
2021/03/23 02:34:23;;;;;;;4.53;3.55;;;7.50;99.90;;;;;;5079841;28;20175;-80
2021/03/23 02:36:50;;;;;;;4.72;3.42;;;7.50;99.90;;;;;;5077937;28;20196;-80
2021/03/23 02:39:20;;;;;;;4.82;3.28;;;7.50;99.90;;;;;;5078208;28;20187;-79
2021/03/23 02:41:48;;;;;;;7.47;3.17;;;7.50;99.90;;;;;;5076007;28;20175;-79
2021/03/23 02:44:14;;;;;;;7.40;3.75;;;7.50;99.90;;;;;;5060171;28;20203;-79
2021/03/23 02:46:40;;;;;;;5.10;3.60;;;7.60;99.90;;;;;;5088821;28;20191;-79
2021/03/23 02:49:07;;;;;;;4.67;3.90;;;7.50;99.90;;;;;;5078395;28;20204;-79
2021/03/23 02:51:33;;;;;;;4.45;3.53;;;7.40;99.90;;;;;;5078116;28;20225;-80
2021/03/23 02:53:58;;;;;;;8.93;3.00;;;7.40;99.90;;;;;;5079548;28;20175;-79
2021/03/23 02:56:24;;;;;;;5.40;4.13;;;7.40;99.90;;;;;;5077472;28;20180;-82
2021/03/23 02:58:50;;;;;;;10.20;4.70;;;7.50;99.90;;;;;;5078227;28;20196;-79
2021/03/23 03:01:18;;;;;;;6.73;4.20;;;7.50;99.90;;;;;;5078797;28;20532;-80
2021/03/23 03:03:44;;;;;;;6.60;3.58;;;7.40;99.90;;;;;;5078074;28;20647;-80
2021/03/23 03:06:11;;;;;;;6.13;4.70;;;7.30;99.90;;;;;;5077035;28;20176;-79
2021/03/23 03:08:42;;;;;;;7.95;4.50;;;7.30;99.90;;;;;;5078035;28;20195;-80
2021/03/23 03:11:08;;;;;;;8.48;4.07;;;7.20;99.90;;;;;;5076451;28;20658;-80
2021/03/23 03:13:34;;;;;;;7.30;4.17;;;7.10;99.90;;;;;;5077814;28;20172;-80
2021/03/23 03:16:01;;;;;;;8.00;4.63;;;7.10;99.90;;;;;;5060971;28;20410;-80
2021/03/23 03:18:27;;;;;;;5.38;4.50;;;7.30;99.90;;;;;;5076458;28;20192;-79
2021/03/23 03:20:54;;;;;;;7.65;5.13;;;7.30;99.90;;;;;;5077404;28;20263;-80
2021/03/23 03:23:20;;;;;;;6.32;5.15;;;7.30;99.90;;;;;;5077891;28;20545;-80
2021/03/23 03:25:47;;;;;;;8.50;5.30;;;7.30;99.90;;;;;;5077177;28;20531;-80
2021/03/23 03:28:13;;;;;;;7.80;4.90;;;7.30;99.90;;;;;;5076756;28;20675;-79
2021/03/23 03:30:40;;;;;;;7.37;4.77;;;7.30;99.90;;;;;;5077082;28;20253;-80
2021/03/23 03:33:08;;;;;;;5.72;4.05;;;7.40;99.90;;;;;;5078075;28;20504;-79
2021/03/23 03:35:36;;;;;;;8.02;4.22;;;7.40;99.90;;;;;;5078095;28;20165;-79
2021/03/23 03:38:03;;;;;;;16.33;4.63;;;7.40;99.90;;;;;;5078637;28;20191;-80
2021/03/23 03:40:36;;;;;;;7.80;4.60;;;7.50;99.90;;;;;;5077806;28;20184;-80
2021/03/23 03:43:06;;;;;;;6.53;3.45;;;7.20;99.90;;;;;;5077154;28;20172;-80
2021/03/23 03:45:31;;;;;;;8.73;5.20;;;7.00;99.90;;;;;;5076276;28;20175;-80
2021/03/23 03:47:57;;;;;;;9.30;3.50;;;7.20;99.90;;;;;;5077534;28;20646;-80
2021/03/23 03:50:25;;;;;;;5.40;3.78;;;7.10;99.90;;;;;;5075855;28;20710;-79
2021/03/23 03:52:52;;;;;;;4.40;3.05;;;7.10;99.90;;;;;;5076390;28;20172;-79
2021/03/23 03:55:20;;;;;;;4.82;4.10;;;7.30;99.90;;;;;;5074758;28;20212;-79
2021/03/23 03:57:46;;;;;;;7.47;3.45;;;7.40;99.90;;;;;;5057717;28;20550;-80
2021/03/23 04:00:18;;;;;;;4.27;2.87;;;7.30;99.90;;;;;;5057414;28;20176;-80
2021/03/23 04:02:45;;;;;;;4.10;2.53;;;7.20;99.90;;;;;;5075809;28;20267;-80
2021/03/23 04:05:30;;;;;;;6.83;3.30;;;7.30;99.90;;;;;;5058027;28;20669;-80
2021/03/23 04:07:56;;;;;;;4.43;3.50;;;7.40;99.90;;;;;;5075034;28;20263;-80
2021/03/23 04:10:22;;;;;;;5.73;3.60;;;7.20;99.90;;;;;;5075654;28;20231;-80
2021/03/23 04:12:48;;;;;;;7.47;4.00;;;7.30;99.90;;;;;;5077006;28;20164;-80
2021/03/23 04:15:26;;;;;;;4.47;2.60;;;7.20;99.90;;;;;;5076935;28;20174;-80
2021/03/23 04:17:52;;;;;;;4.55;3.00;;;7.20;99.90;;;;;;5077015;28;20164;-80
2021/03/23 04:20:18;;;;;;;5.30;3.30;;;7.10;99.90;;;;;;5076667;28;20172;-79
2021/03/23 04:22:47;;;;;;;4.13;2.85;;;7.20;99.90;;;;;;5076360;28;20467;-79
2021/03/23 04:25:15;;;;;;;4.43;2.70;;;7.30;99.90;;;;;;5076572;28;20711;-80
2021/03/23 04:27:41;;;;;;;5.18;2.92;;;7.40;99.90;;;;;;5077325;28;20251;-80
2021/03/23 04:30:08;;;;;;;8.53;3.60;;;7.40;99.90;;;;;;5077251;28;20693;-80
2021/03/23 04:32:35;;;;;;;2.60;2.03;;;7.30;99.90;;;;;;5076390;28;20497;-80
2021/03/23 04:35:01;;;;;;;3.13;2.28;;;7.20;99.90;;;;;;5077533;28;20160;-80
2021/03/23 04:37:29;;;;;;;3.70;2.42;;;7.30;99.90;;;;;;5077076;28;20653;-80
2021/03/23 04:39:57;;;;;;;3.08;2.15;;;7.30;99.90;;;;;;5075408;28;20198;-79
2021/03/23 04:42:23;;;;;;;3.55;1.90;;;7.20;99.90;;;;;;5075937;28;20168;-79
2021/03/23 04:44:48;;;;;;;2.73;1.67;;;7.30;99.90;;;;;;5075659;28;20271;-80
2021/03/23 04:47:14;;;;;;;3.33;2.17;;;7.40;99.90;;;;;;5059431;28;20670;-79
2021/03/23 04:49:41;;;;;;;3.00;1.83;;;7.50;99.90;;;;;;5074444;28;20210;-79
2021/03/23 04:52:07;;;;;;;2.80;2.28;;;7.50;99.90;;;;;;5074849;28;20639;-79
2021/03/23 04:54:36;;;;;;;2.75;2.05;;;7.10;99.90;;;;;;5074379;28;20229;-79
2021/03/23 04:57:04;;;;;;;1.95;1.50;;;7.30;99.90;;;;;;5076346;28;20187;-80
2021/03/23 04:59:30;;;;;;;2.85;1.88;;;7.20;99.90;;;;;;5076638;28;20238;-80
2021/03/23 05:01:56;;;;;;;2.10;1.90;;;7.00;99.90;;;;;;5057833;28;20179;-79
2021/03/23 05:04:21;;;;;;;2.17;1.90;;;7.10;99.90;;;;;;5059274;28;20172;-80
2021/03/23 05:06:49;;;;;;;2.43;1.93;;;6.90;99.90;;;;;;5076807;28;20180;-79
2021/03/23 05:09:15;;;;;;;2.25;1.73;;;7.10;99.90;;;;;;5075251;28;20255;-80
2021/03/23 05:11:41;;;;;;;2.13;1.60;;;7.20;99.90;;;;;;5075502;28;20199;-79
2021/03/23 05:14:07;;;;;;;9.10;2.03;;;7.10;99.90;;;;;;5058437;28;20675;-80
2021/03/23 05:16:33;;;;;;;2.50;1.98;;;7.00;99.90;;;;;;5041717;28;20176;-79
2021/03/23 05:18:59;;;;;;;2.47;1.50;;;7.20;99.90;;;;;;5075794;28;20191;-81
2021/03/23 05:21:25;;;;;;;3.47;2.20;;;7.30;99.90;;;;;;5075962;28;20941;-80
2021/03/23 05:23:54;;;;;;;3.00;1.33;;;7.30;99.90;;;;;;5074320;28;20165;-82
2021/03/23 05:26:23;;;;;;;2.78;1.70;;;7.40;99.90;;;;;;5075443;28;20168;-80
2021/03/23 05:28:48;;;;;;;2.63;1.50;;;7.40;99.90;;;;;;5074206;28;20188;-80
2021/03/23 05:31:15;;;;;;;5.60;2.10;;;7.10;99.90;;;;;;5074899;28;20244;-80
2021/03/23 05:33:44;;;;;;;3.28;1.92;;;7.20;99.90;;;;;;5074468;28;20179;-79
2021/03/23 05:36:10;;;;;;;2.63;1.60;;;7.20;99.90;;;;;;5076109;28;20164;-78
2021/03/23 05:38:35;;;;;;;2.08;1.83;;;7.30;99.90;;;;;;5076105;28;20337;-80
2021/03/23 05:41:32;;;;;;;4.70;2.10;;;7.40;99.90;;;;;;5076204;28;20496;-79
2021/03/23 05:44:21;;;;;;;4.28;1.80;;;7.30;99.90;;;;;;5075510;28;20168;-79
2021/03/23 05:46:48;;;;;;;3.38;2.03;;;7.30;99.90;;;;;;5072249;28;20192;-79
2021/03/23 05:49:30;;;;;;;2.53;1.90;;;7.40;99.90;;;;;;5067416;28;20200;-80
2021/03/23 05:52:33;;;;;;;3.45;2.60;;;7.60;99.90;;;;;;5074895;28;20252;-80
2021/03/23 05:55:26;;;;;;;4.95;2.97;;;7.70;99.90;;;;;;5057102;28;20168;-80
2021/03/23 05:57:52;;;;;;;5.07;2.97;;;7.60;99.90;;;;;;5072070;28;20172;-79
2021/03/23 06:00:49;;;;;;;3.35;2.70;;;7.70;99.90;;;;;;5072330;28;20168;-81
2021/03/23 06:03:18;;;;;;;4.65;2.80;;;7.60;99.90;;;;;;5056132;28;20730;-80
2021/03/23 06:05:55;;;;;;;5.63;3.05;;;7.50;99.90;;;;;;5054449;28;20172;-81
2021/03/23 06:08:28;;;;;;;5.07;3.28;;;7.50;99.90;;;;;;5076171;28;20192;-81
2021/03/23 06:11:06;;;;;;;4.57;3.13;;;7.70;99.90;;;;;;5076553;28;20188;-80
2021/03/23 06:13:31;;;;;;;6.07;4.35;;;7.60;99.90;;;;;;5061672;28;20172;-81
2021/03/23 06:16:22;;;;;;;6.30;4.03;;;7.60;99.90;;;;;;5057115;28;20175;-80
2021/03/23 06:19:00;;;;;;;6.43;3.58;;;7.50;99.90;;;;;;5057492;28;20235;-81
2021/03/23 06:21:47;;;;;;;5.70;3.65;;;7.40;99.90;;;;;;5075870;28;20164;-80
2021/03/23 06:24:24;;;;;;;5.10;3.72;;;7.30;99.90;;;;;;5078872;28;20168;-80
2021/03/23 06:27:14;;;;;;;6.05;4.35;;;7.50;99.90;;;;;;5058032;28;20217;-80
2021/03/23 06:30:00;;;;;;;7.28;4.15;;;7.60;99.90;;;;;;5061747;28;20203;-80
2021/03/23 06:32:42;;;;;;;6.28;3.67;;;7.70;99.90;;;;;;5076802;28;20199;-80
2021/03/23 06:35:14;;;;;;;4.95;3.70;;;7.60;99.90;;;;;;5077228;28;20172;-80
2021/03/23 06:37:41;;;;;;;7.40;4.40;;;7.60;99.90;;;;;;5077569;28;20176;-80
2021/03/23 06:40:18;;;;;;;6.57;3.78;;;7.50;99.90;;;;;;5070809;28;20477;-79
2021/03/23 06:42:47;;;;;;;4.20;3.30;;;7.50;99.90;;;;;;5061818;28;20192;-79
2021/03/23 06:45:19;;;;;;;8.43;4.00;;;7.60;99.90;;;;;;5061853;28;20196;-80
2021/03/23 06:47:45;;;;;;;6.18;3.60;;;7.60;99.90;;;;;;5077673;28;20164;-80
2021/03/23 06:50:22;;;;;;;4.80;2.70;;;7.60;99.90;;;;;;5080425;28;20188;-79
2021/03/23 06:53:08;;;;;;;4.15;3.17;;;7.70;99.90;;;;;;5077585;28;20171;-80
2021/03/23 06:55:35;;;;;;;4.50;3.17;;;7.60;99.90;;;;;;5080257;28;20168;-80
2021/03/23 06:58:02;;;;;;;5.28;3.55;;;7.60;99.90;;;;;;5074601;28;20193;-82
2021/03/23 07:00:33;;;;;;;4.38;3.13;;;7.70;99.90;;;;;;5043514;28;20188;-80
2021/03/23 07:03:23;;;;;;;7.78;3.78;;;7.50;99.90;;;;;;5064105;28;20180;-80
2021/03/23 07:05:49;;;;;;;3.38;2.58;;;7.60;99.90;;;;;;5077734;28;20654;-80
2021/03/23 07:08:22;;;;;;;4.33;3.40;;;7.60;99.90;;;;;;5071077;28;20199;-79
2021/03/23 07:10:54;;;;;;;4.00;2.63;;;7.50;99.90;;;;;;5057658;28;21012;-81
2021/03/23 07:13:25;;;;;;;8.40;3.38;;;7.60;99.90;;;;;;5067733;28;20294;-81
2021/03/23 07:16:20;;;;;;;5.07;2.55;;;7.50;99.90;;;;;;5077810;28;20243;-81
2021/03/23 07:18:50;;;;;;;4.60;3.38;;;7.70;99.90;;;;;;5063924;28;20199;-80
2021/03/23 07:21:22;;;;;;;7.60;3.40;;;7.60;99.90;;;;;;5075287;28;20603;-81
2021/03/23 07:24:04;;;;;;;3.50;1.90;;;7.60;99.90;;;;;;5076191;28;20222;-82
2021/03/23 07:26:34;;;;;;;9.80;2.55;;;7.40;99.90;;;;;;5076754;28;20171;-81
2021/03/23 07:29:12;;;;;;;6.20;3.17;;;7.50;99.90;;;;;;5063423;28;20254;-80
2021/03/23 07:32:00;;;;;;;2.80;2.30;;;7.60;99.90;;;;;;5073832;28;20239;-81
2021/03/23 07:34:31;;;;;;;4.38;2.70;;;7.60;99.90;;;;;;5077755;28;20594;-80
2021/03/23 07:37:06;;;;;;;4.10;2.65;;;7.50;99.90;;;;;;5076210;28;20572;-80
2021/03/23 07:39:44;;;;;;;5.57;2.80;;;7.60;99.90;;;;;;5074603;28;20191;-81
2021/03/23 07:42:27;;;;;;;5.68;3.63;;;7.70;99.90;;;;;;5056283;28;20192;-81
2021/03/23 07:45:00;;;;;;;8.93;4.15;;;7.50;99.90;;;;;;5064722;28;20183;-79
2021/03/23 07:47:44;;;;;;;5.45;3.47;;;7.70;99.90;;;;;;5065056;28;20711;-80
2021/03/23 07:50:19;;;;;;;6.25;3.30;;;8.00;99.90;;;;;;5058006;28;20192;-80
2021/03/23 07:53:04;;;;;;;4.20;3.35;;;9.80;99.90;;;;;;5060211;28;20651;-81
2021/03/23 07:55:31;;;;;;;5.15;3.10;;;8.90;99.90;;;;;;5067683;28;20184;-80
2021/03/23 07:58:00;;;;;;;6.78;4.15;;;9.40;99.90;;;;;;5057644;28;20194;-80
2021/03/23 08:00:43;;;;;;;9.90;5.07;;;9.20;99.90;;;;;;5075633;28;20176;-80
2021/03/23 08:03:50;;;;;;;6.30;4.15;;;9.00;99.90;;;;;;5069146;28;20182;-82
2021/03/23 08:06:32;;;;;;;5.82;4.47;;;8.80;99.90;;;;;;5069628;28;20176;-81
2021/03/23 08:09:35;;;;;;;7.10;4.70;;;8.70;99.90;;;;;;5075561;28;20204;-81
2021/03/23 08:12:46;;;;;;;8.32;4.95;;;8.60;99.90;;;;;;5058575;28;20248;-82
2021/03/23 08:15:40;;;;;;;7.68;4.57;;;8.60;99.90;;;;;;5066518;28;20179;-80
2021/03/23 08:18:19;;;;;;;5.97;4.70;;;8.40;99.90;;;;;;5051132;28;20679;-81
2021/03/23 08:21:22;;;;;;;8.32;4.18;;;8.40;99.90;;;;;;5058196;28;20194;-81
2021/03/23 08:24:09;;;;;;;9.77;5.13;;;8.40;99.90;;;;;;5059900;28;20176;-82
2021/03/23 08:27:05;;;;;;;11.40;4.70;;;8.40;99.90;;;;;;5076177;28;20602;-81
2021/03/23 08:29:59;;;;;;;5.43;3.95;;;8.20;99.90;;;;;;5077605;28;20192;-80
2021/03/23 08:32:43;;;;;;;8.45;4.90;;;7.90;99.90;;;;;;5071958;28;20191;-82
2021/03/23 08:35:55;;;;;;;4.38;3.17;;;8.00;99.90;;;;;;5066842;28;20168;-80
2021/03/23 08:38:40;;;;;;;10.20;3.90;;;8.00;99.90;;;;;;5066127;28;20182;-79
2021/03/23 08:41:31;;;;;;;5.60;3.08;;;7.80;99.90;;;;;;5073016;28;20176;-80
2021/03/23 08:44:04;;;;;;;5.38;4.38;;;7.90;99.90;;;;;;5056423;28;20183;-81
2021/03/23 08:46:34;;;;;;;4.30;3.50;;;7.60;99.90;;;;;;5075391;28;20180;-81
2021/03/23 08:49:07;;;;;;;6.18;3.72;;;7.80;99.90;;;;;;5071545;28;20196;-81
2021/03/23 08:51:44;;;;;;;6.45;3.85;;;7.60;99.90;;;;;;5061657;28;20164;-81
2021/03/23 08:54:10;;;;;;;5.22;3.35;;;7.80;99.90;;;;;;5067482;28;20160;-81
2021/03/23 08:56:55;;;;;;;8.95;3.88;;;7.80;99.90;;;;;;5061643;28;20176;-80
2021/03/23 08:59:36;;;;;;;7.18;4.60;;;7.80;99.90;;;;;;5069882;28;20185;-81
2021/03/23 09:02:08;;;;;;;5.30;3.35;;;7.90;99.90;;;;;;5071883;28;20199;-80
2021/03/23 09:05:02;;;;;;;4.30;3.42;;;8.00;99.90;;;;;;5076565;28;20180;-81
2021/03/23 09:07:34;;;;;;;4.22;2.70;;;8.00;99.90;;;;;;5059967;28;20177;-81
2021/03/23 09:10:35;;;;;;;11.60;3.35;;;8.00;99.90;;;;;;5065713;28;20208;-82
2021/03/23 09:13:01;;;;;;;6.85;3.83;;;8.30;99.90;;;;;;5057937;28;20167;-81
2021/03/23 09:15:50;;;;;;;5.60;3.43;;;8.10;99.90;;;;;;5071568;28;20710;-81
2021/03/23 09:18:20;;;;;;;3.35;2.80;;;8.20;99.90;;;;;;5062252;28;20196;-82
2021/03/23 09:20:52;;;;;;;9.35;2.75;;;8.30;99.90;;;;;;5058181;28;20165;-81
2021/03/23 09:23:24;;;;;;;7.82;5.20;;;8.20;99.90;;;;;;5061728;28;20191;-82
2021/03/23 09:26:17;;;;;;;4.53;3.10;;;8.20;99.90;;;;;;5062349;28;20241;-81
2021/03/23 09:28:56;;;;;;;5.78;3.95;;;8.30;99.90;;;;;;5055268;28;20205;-82
2021/03/23 09:31:55;;;;;;;3.47;2.47;;;8.30;99.90;;;;;;5056714;28;20184;-81
2021/03/23 09:35:20;;;;;;;4.18;2.90;;;8.40;99.90;;;;;;5057973;28;20596;-83
2021/03/23 09:38:20;;;;;;;2.85;2.53;;;8.50;99.90;;;;;;5075903;28;20176;-82
2021/03/23 09:41:15;;;;;;;8.13;2.78;;;8.60;99.90;;;;;;5064682;28;20278;-82
2021/03/23 09:43:44;;;;;;;5.30;3.03;;;8.50;99.90;;;;;;5057782;28;20674;-82
2021/03/23 09:46:23;;;;;;;4.30;2.90;;;8.50;99.90;;;;;;5060640;28;20643;-82
2021/03/23 09:49:10;;;;;;;4.80;3.03;;;8.50;99.90;;;;;;5076339;28;20245;-82
2021/03/23 09:52:06;;;;;;;5.78;2.63;;;8.50;99.90;;;;;;5064007;28;20212;-81
2021/03/23 09:54:37;;;;;;;4.35;2.83;;;8.50;99.90;;;;;;5064125;28;20163;-83
2021/03/23 09:57:18;;;;;;;3.25;2.80;;;8.60;99.90;;;;;;5062173;28;20223;-82
2021/03/23 10:00:04;;;;;;;4.82;2.90;;;8.50;99.90;;;;;;5074730;28;20302;-82
2021/03/23 10:02:42;;;;;;;4.45;3.35;;;8.30;99.90;;;;;;5075770;28;20201;-81
2021/03/23 10:05:27;;;;;;;4.25;3.50;;;8.50;99.90;;;;;;5071878;28;20643;-81
2021/03/23 10:08:19;;;;;;;4.60;2.72;;;8.50;99.90;;;;;;5056613;28;20223;-83
2021/03/23 10:10:45;;;;;;;4.82;3.22;;;8.50;99.90;;;;;;5054305;28;20196;-82
2021/03/23 10:13:26;;;;;;;7.75;4.70;;;8.70;99.90;;;;;;5064428;28;20749;-80
2021/03/23 10:15:57;;;;;;;5.78;3.45;;;8.90;99.90;;;;;;5072625;28;20229;-82
2021/03/23 10:18:27;;;;;;;5.07;2.80;;;9.00;99.90;;;;;;5066357;28;20279;-83
2021/03/23 10:21:30;;;;;;;;;;;;;;;;;;;;;
2021/03/23 10:24:00;;;;;;;8.05;3.95;;;9.10;99.90;;;;;;5059879;28;20263;-82
2021/03/23 10:26:37;;;;;;;4.72;3.22;;;9.20;99.90;;;;;;5064316;28;20549;-82
2021/03/23 10:29:29;;;;;;;3.60;2.80;;;9.20;99.90;;;;;;5058902;28;20196;-81
2021/03/23 10:31:58;;;;;;;6.93;3.95;;;9.00;99.90;;;;;;5059145;28;20226;-81
2021/03/23 10:34:48;;;;;;;4.15;2.88;;;9.20;99.90;;;;;;5060020;28;20331;-82
2021/03/23 10:37:21;;;;;;;3.80;2.42;;;9.30;99.90;;;;;;5060211;28;20242;-84
2021/03/23 10:40:13;;;;;;;3.67;2.95;;;9.20;99.90;;;;;;5061974;28;20196;-83
2021/03/23 10:42:51;;;;;;;6.05;3.25;;;9.30;99.90;;;;;;5072073;28;20199;-82
2021/03/23 10:45:43;;;;;;;3.33;2.65;;;9.30;99.90;;;;;;5073419;28;20172;-81
2021/03/23 10:48:24;;;;;;;4.38;2.38;;;9.20;99.90;;;;;;5067721;28;20188;-82
2021/03/23 10:51:18;;;;;;;5.70;2.35;;;9.40;99.90;;;;;;5077493;28;20203;-82
2021/03/23 10:54:03;;;;;;;4.45;2.83;;;9.40;99.90;;;;;;5071627;28;20230;-81
2021/03/23 10:56:38;;;;;;;4.20;2.72;;;9.30;99.90;;;;;;5080443;28;20175;-83
2021/03/23 10:59:05;;;;;;;4.25;3.00;;;9.20;99.90;;;;;;5063093;28;20200;-81
2021/03/23 11:01:30;;;;;;;6.03;2.67;;;9.40;99.90;;;;;;5040718;28;20173;-82
2021/03/23 11:04:10;;;;;;;3.27;2.30;;;9.10;99.90;;;;;;5059336;28;20177;-82
2021/03/23 11:06:37;;;;;;;2.13;2.03;;;9.00;99.90;;;;;;5062261;28;20249;-81
2021/03/23 11:09:07;;;;;;;3.70;2.80;;;8.70;99.90;;;;;;5041559;28;20205;-82
2021/03/23 11:11:36;;;;;;;4.32;3.15;;;8.90;99.90;;;;;;5068929;28;20365;-80
2021/03/23 11:14:03;;;;;;;4.43;3.53;;;9.10;99.90;;;;;;5069331;28;20184;-79
2021/03/23 11:16:33;;;;;;;3.65;3.22;;;9.00;99.90;;;;;;5056146;28;20256;-78
2021/03/23 11:19:04;;;;;;;8.07;3.17;;;9.30;99.90;;;;;;5054020;28;20197;-79
2021/03/23 11:21:36;;;;;;;4.05;3.65;;;9.40;99.90;;;;;;5068575;28;20225;-79
2021/03/23 11:24:05;;;;;;;4.63;3.05;;;9.50;99.90;;;;;;5067562;28;20173;-80
2021/03/23 11:26:31;;;;;;;4.40;3.30;;;9.20;99.90;;;;;;5069552;28;20179;-79
2021/03/23 11:28:59;;;;;;;4.80;3.57;;;9.40;99.90;;;;;;5063136;28;20189;-81
2021/03/23 11:31:28;;;;;;;4.47;3.10;;;9.50;99.90;;;;;;5057171;28;20759;-81
2021/03/23 11:34:00;;;;;;;3.55;3.25;;;9.50;99.90;;;;;;5059051;28;20241;-81
2021/03/23 11:36:28;;;;;;;4.13;2.88;;;9.60;99.90;;;;;;5064994;28;20524;-81
2021/03/23 11:38:57;;;;;;;3.97;3.20;;;9.80;99.90;;;;;;5067308;28;20196;-81
2021/03/23 11:42:01;;;;;;;8.68;3.42;;;9.70;99.90;;;;;;5064510;28;20267;-79
2021/03/23 11:44:31;;;;;;;6.47;2.80;;;9.80;99.90;;;;;;5032428;28;20208;-80
2021/03/23 11:47:08;;;;;;;3.60;2.72;;;9.70;99.90;;;;;;5032235;28;20170;-79
2021/03/23 11:50:01;;;;;;;2.95;2.40;;;9.90;99.90;;;;;;5050018;28;20706;-80
2021/03/23 11:52:26;;;;;;;4.18;2.38;;;9.90;99.90;;;;;;5055390;28;20173;-80
2021/03/23 11:54:52;;;;;;;5.17;1.80;;;10.00;99.90;;;;;;5056355;28;20631;-81
2021/03/23 11:57:19;;;;;;;3.50;2.47;;;9.90;99.90;;;;;;5054999;28;20172;-79
2021/03/23 11:59:45;;;;;;;3.70;2.75;;;10.00;99.90;;;;;;5022030;28;20201;-80
2021/03/23 12:02:11;;;;;;;2.90;1.93;;;10.20;99.90;;;;;;5069864;28;20197;-80
2021/03/23 12:04:37;;;;;;;2.47;1.70;;;10.00;99.90;;;;;;5056770;28;20430;-80
2021/03/23 12:07:25;;;;;;;4.57;2.30;;;10.00;99.90;;;;;;5056849;28;20198;-81
2021/03/23 12:10:04;;;;;;;2.25;1.50;;;10.00;99.90;;;;;;5067803;28;20288;-81
2021/03/23 12:12:40;;;;;;;2.92;2.20;;;9.80;99.90;;;;;;5062591;28;20177;-80
2021/03/23 12:15:31;;;;;;;2.13;1.92;;;9.80;99.90;;;;;;5081664;28;20634;-81
2021/03/23 12:17:59;;;;;;;5.13;2.47;;;9.70;99.90;;;;;;5064536;28;20203;-80
2021/03/23 12:20:29;;;;;;;3.17;1.70;;;9.70;99.90;;;;;;5071266;28;20180;-81
2021/03/23 12:22:55;;;;;;;1.95;1.30;;;9.60;99.90;;;;;;5062786;28;20241;-82
2021/03/23 12:25:23;;;;;;;1.73;1.63;;;9.60;99.90;;;;;;5060312;28;20203;-82
2021/03/23 12:27:49;;;;;;;2.53;1.70;;;9.70;99.90;;;;;;5056954;28;20565;-83
2021/03/23 12:30:15;;;;;;;3.10;1.40;;;9.70;99.90;;;;;;5058524;28;20656;-82
2021/03/23 12:32:41;;;;;;;2.05;1.52;;;9.60;99.90;;;;;;5058445;28;20414;-81
2021/03/23 12:35:14;;;;;;;2.33;2.10;;;9.60;99.90;;;;;;5071960;28;20169;-82
2021/03/23 12:37:43;;;;;;;2.20;1.80;;;9.60;99.90;;;;;;5078654;28;20180;-80
2021/03/23 12:40:14;;;;;;;4.10;2.97;;;9.50;99.90;;;;;;5072817;28;20188;-81
2021/03/23 12:42:40;;;;;;;3.78;2.40;;;9.60;99.90;;;;;;5076281;28;20212;-82
2021/03/23 12:45:09;;;;;;;3.43;2.90;;;9.60;99.90;;;;;;5088687;28;20194;-83
2021/03/23 12:47:37;;;;;;;3.28;2.45;;;9.60;99.90;;;;;;5086822;28;20179;-82
2021/03/23 12:50:04;;;;;;;6.18;3.17;;;9.50;99.90;;;;;;5086390;28;20196;-81
2021/03/23 12:52:30;;;;;;;6.20;2.83;;;9.40;99.90;;;;;;5088718;28;20704;-82
2021/03/23 12:54:57;;;;;;;4.47;2.92;;;9.50;99.90;;;;;;5077305;28;20195;-82
2021/03/23 12:57:43;;;;;;;3.60;2.50;;;9.40;99.90;;;;;;5068108;28;20172;-82
2021/03/23 13:00:25;;;;;;;5.60;3.00;;;9.50;99.90;;;;;;5070967;28;20199;-83
2021/03/23 13:02:54;;;;;;;3.90;2.60;;;9.60;99.90;;;;;;5071869;28;20180;-81
2021/03/23 13:05:21;;;;;;;3.65;2.35;;;9.90;99.90;;;;;;5068120;28;20328;-82
2021/03/23 13:07:53;;;;;;;4.13;1.90;;;9.80;99.90;;;;;;5070260;28;20246;-81
2021/03/23 13:10:40;;;;;;;2.33;1.83;;;9.70;99.90;;;;;;5061408;28;20188;-81
2021/03/23 13:13:19;;;;;;;3.10;2.38;;;9.80;99.90;;;;;;5064024;28;20180;-82
2021/03/23 13:15:46;;;;;;;3.28;2.20;;;9.80;99.90;;;;;;5065235;28;20544;-81
2021/03/23 13:18:22;;;;;;;2.80;2.30;;;9.80;99.90;;;;;;5084158;28;20210;-81
2021/03/23 13:20:54;;;;;;;4.35;3.33;;;9.70;99.90;;;;;;5082807;28;20172;-82
2021/03/23 13:23:32;;;;;;;4.70;2.65;;;9.60;99.90;;;;;;5061904;28;20181;-81
2021/03/23 13:26:03;;;;;;;6.70;4.40;;;9.70;99.90;;;;;;5057879;28;20177;-82
2021/03/23 13:28:50;;;;;;;4.35;2.45;;;9.70;99.90;;;;;;5085404;28;20199;-82
2021/03/23 13:31:24;;;;;;;3.40;2.58;;;9.70;99.90;;;;;;5083999;28;20209;-81